sensor_id;sensor_type;location;lat;lon;timestamp;P1;durP1;ratioP1;P2;durP2;ratioP2
33074;SDS011;19433;51.292;6.868;2023-08-07T00:01:20;3.60;;;1.30;;
33074;SDS011;19433;51.292;6.868;2023-08-07T00:03:45;2.90;;;1.40;;
33074;SDS011;19433;51.292;6.868;2023-08-07T00:06:10;4.57;;;1.90;;
33074;SDS011;19433;51.292;6.868;2023-08-07T00:08:36;3.87;;;2.30;;
33074;SDS011;19433;51.292;6.868;2023-08-07T00:11:09;5.23;;;2.40;;
33074;SDS011;19433;51.292;6.868;2023-08-07T00:13:35;3.07;;;1.60;;
33074;SDS011;19433;51.292;6.868;2023-08-07T00:16:01;2.93;;;2.23;;
33074;SDS011;19433;51.292;6.868;2023-08-07T00:18:27;3.10;;;1.60;;
33074;SDS011;19433;51.292;6.868;2023-08-07T00:20:52;7.40;;;1.40;;
33074;SDS011;19433;51.292;6.868;2023-08-07T00:23:18;8.87;;;2.00;;
33074;SDS011;19433;51.292;6.868;2023-08-07T00:25:43;1.80;;;1.70;;
33074;SDS011;19433;51.292;6.868;2023-08-07T00:28:08;1.80;;;1.50;;
33074;SDS011;19433;51.292;6.868;2023-08-07T00:30:33;5.70;;;1.70;;
33074;SDS011;19433;51.292;6.868;2023-08-07T00:32:59;3.33;;;3.00;;
33074;SDS011;19433;51.292;6.868;2023-08-07T00:35:24;2.70;;;2.07;;
33074;SDS011;19433;51.292;6.868;2023-08-07T00:37:49;3.33;;;2.20;;
33074;SDS011;19433;51.292;6.868;2023-08-07T00:40:16;3.20;;;1.80;;
33074;SDS011;19433;51.292;6.868;2023-08-07T00:42:42;2.23;;;1.60;;
33074;SDS011;19433;51.292;6.868;2023-08-07T00:45:08;1.97;;;1.27;;
33074;SDS011;19433;51.292;6.868;2023-08-07T00:47:33;4.90;;;2.07;;
33074;SDS011;19433;51.292;6.868;2023-08-07T00:49:59;3.20;;;1.40;;
33074;SDS011;19433;51.292;6.868;2023-08-07T00:55:46;4.20;;;1.80;;
33074;SDS011;19433;51.292;6.868;2023-08-07T00:58:31;3.33;;;1.10;;
33074;SDS011;19433;51.292;6.868;2023-08-07T01:00:57;2.70;;;1.40;;
33074;SDS011;19433;51.292;6.868;2023-08-07T01:03:23;6.10;;;2.17;;
33074;SDS011;19433;51.292;6.868;2023-08-07T01:05:49;1.00;;;1.00;;
33074;SDS011;19433;51.292;6.868;2023-08-07T01:08:14;6.30;;;1.70;;
33074;SDS011;19433;51.292;6.868;2023-08-07T01:10:47;2.77;;;1.20;;
33074;SDS011;19433;51.292;6.868;2023-08-07T01:13:18;1.83;;;1.50;;
33074;SDS011;19433;51.292;6.868;2023-08-07T01:26:22;7.00;;;2.30;;
33074;SDS011;19433;51.292;6.868;2023-08-07T01:31:23;5.67;;;2.10;;
33074;SDS011;19433;51.292;6.868;2023-08-07T01:33:52;3.17;;;2.00;;
33074;SDS011;19433;51.292;6.868;2023-08-07T01:36:42;5.57;;;1.90;;
33074;SDS011;19433;51.292;6.868;2023-08-07T01:42:22;5.90;;;1.83;;
33074;SDS011;19433;51.292;6.868;2023-08-07T01:49:58;2.70;;;1.80;;
33074;SDS011;19433;51.292;6.868;2023-08-07T01:52:23;4.03;;;2.00;;
33074;SDS011;19433;51.292;6.868;2023-08-07T01:54:48;4.77;;;2.87;;
33074;SDS011;19433;51.292;6.868;2023-08-07T01:57:13;8.13;;;1.90;;
33074;SDS011;19433;51.292;6.868;2023-08-07T01:59:39;11.53;;;1.90;;
33074;SDS011;19433;51.292;6.868;2023-08-07T02:02:04;8.80;;;4.33;;
33074;SDS011;19433;51.292;6.868;2023-08-07T02:08:31;7.33;;;2.70;;
33074;SDS011;19433;51.292;6.868;2023-08-07T02:10:56;5.20;;;2.37;;
33074;SDS011;19433;51.292;6.868;2023-08-07T02:34:03;6.90;;;2.53;;
33074;SDS011;19433;51.292;6.868;2023-08-07T02:36:28;7.77;;;2.80;;
33074;SDS011;19433;51.292;6.868;2023-08-07T02:38:55;9.93;;;3.77;;
33074;SDS011;19433;51.292;6.868;2023-08-07T02:41:20;8.43;;;3.80;;
33074;SDS011;19433;51.292;6.868;2023-08-07T02:43:45;9.33;;;3.60;;
33074;SDS011;19433;51.292;6.868;2023-08-07T02:46:11;13.53;;;4.30;;
33074;SDS011;19433;51.292;6.868;2023-08-07T02:48:36;8.37;;;3.00;;
33074;SDS011;19433;51.292;6.868;2023-08-07T02:51:01;8.20;;;3.00;;
33074;SDS011;19433;51.292;6.868;2023-08-07T02:53:27;13.13;;;3.10;;
33074;SDS011;19433;51.292;6.868;2023-08-07T02:55:52;12.80;;;3.60;;
33074;SDS011;19433;51.292;6.868;2023-08-07T02:58:17;5.93;;;3.20;;
33074;SDS011;19433;51.292;6.868;2023-08-07T03:00:43;10.73;;;3.70;;
33074;SDS011;19433;51.292;6.868;2023-08-07T03:03:08;8.33;;;3.17;;
33074;SDS011;19433;51.292;6.868;2023-08-07T03:05:34;10.57;;;3.20;;
33074;SDS011;19433;51.292;6.868;2023-08-07T03:07:59;7.70;;;2.63;;
33074;SDS011;19433;51.292;6.868;2023-08-07T03:10:24;6.00;;;2.80;;
33074;SDS011;19433;51.292;6.868;2023-08-07T03:12:50;15.63;;;3.30;;
33074;SDS011;19433;51.292;6.868;2023-08-07T03:15:15;15.23;;;3.20;;
33074;SDS011;19433;51.292;6.868;2023-08-07T03:17:40;10.80;;;3.20;;
33074;SDS011;19433;51.292;6.868;2023-08-07T03:20:05;12.43;;;3.13;;
33074;SDS011;19433;51.292;6.868;2023-08-07T03:22:31;10.30;;;3.20;;
33074;SDS011;19433;51.292;6.868;2023-08-07T03:24:56;9.10;;;3.33;;
33074;SDS011;19433;51.292;6.868;2023-08-07T03:27:22;13.20;;;3.63;;
33074;SDS011;19433;51.292;6.868;2023-08-07T03:29:47;12.27;;;3.73;;
33074;SDS011;19433;51.292;6.868;2023-08-07T03:32:12;9.83;;;3.33;;
33074;SDS011;19433;51.292;6.868;2023-08-07T03:34:38;12.53;;;4.60;;
33074;SDS011;19433;51.292;6.868;2023-08-07T03:37:03;11.17;;;4.73;;
33074;SDS011;19433;51.292;6.868;2023-08-07T03:39:28;10.93;;;4.50;;
33074;SDS011;19433;51.292;6.868;2023-08-07T03:41:54;16.40;;;4.60;;
33074;SDS011;19433;51.292;6.868;2023-08-07T03:44:19;13.60;;;4.10;;
33074;SDS011;19433;51.292;6.868;2023-08-07T03:46:44;8.83;;;3.60;;
33074;SDS011;19433;51.292;6.868;2023-08-07T03:49:09;12.60;;;4.90;;
33074;SDS011;19433;51.292;6.868;2023-08-07T03:51:35;16.57;;;5.50;;
33074;SDS011;19433;51.292;6.868;2023-08-07T03:54:00;12.47;;;4.40;;
33074;SDS011;19433;51.292;6.868;2023-08-07T03:56:25;7.10;;;3.60;;
33074;SDS011;19433;51.292;6.868;2023-08-07T03:58:51;9.80;;;3.60;;
33074;SDS011;19433;51.292;6.868;2023-08-07T04:01:16;6.23;;;3.30;;
33074;SDS011;19433;51.292;6.868;2023-08-07T04:03:41;12.10;;;3.80;;
33074;SDS011;19433;51.292;6.868;2023-08-07T04:06:07;8.00;;;3.17;;
33074;SDS011;19433;51.292;6.868;2023-08-07T04:08:32;11.07;;;3.70;;
33074;SDS011;19433;51.292;6.868;2023-08-07T04:11:01;9.00;;;3.83;;
33074;SDS011;19433;51.292;6.868;2023-08-07T04:13:28;15.30;;;3.37;;
33074;SDS011;19433;51.292;6.868;2023-08-07T04:15:54;7.77;;;3.17;;
33074;SDS011;19433;51.292;6.868;2023-08-07T04:18:33;8.23;;;3.53;;
33074;SDS011;19433;51.292;6.868;2023-08-07T04:20:59;9.50;;;3.70;;
33074;SDS011;19433;51.292;6.868;2023-08-07T04:23:24;11.77;;;3.10;;
33074;SDS011;19433;51.292;6.868;2023-08-07T04:25:51;9.13;;;3.30;;
33074;SDS011;19433;51.292;6.868;2023-08-07T04:28:18;11.83;;;4.00;;
33074;SDS011;19433;51.292;6.868;2023-08-07T04:30:44;10.50;;;3.70;;
33074;SDS011;19433;51.292;6.868;2023-08-07T04:33:10;9.57;;;4.20;;
33074;SDS011;19433;51.292;6.868;2023-08-07T04:35:36;7.67;;;3.60;;
33074;SDS011;19433;51.292;6.868;2023-08-07T04:38:01;8.40;;;2.93;;
33074;SDS011;19433;51.292;6.868;2023-08-07T04:40:27;10.30;;;3.83;;
33074;SDS011;19433;51.292;6.868;2023-08-07T04:42:53;9.43;;;4.30;;
33074;SDS011;19433;51.292;6.868;2023-08-07T04:45:18;7.50;;;3.53;;
33074;SDS011;19433;51.292;6.868;2023-08-07T04:47:44;12.70;;;3.97;;
33074;SDS011;19433;51.292;6.868;2023-08-07T04:50:09;5.77;;;3.40;;
33074;SDS011;19433;51.292;6.868;2023-08-07T04:52:35;8.73;;;4.07;;
33074;SDS011;19433;51.292;6.868;2023-08-07T04:55:00;8.70;;;4.10;;
33074;SDS011;19433;51.292;6.868;2023-08-07T04:57:26;8.37;;;4.20;;
33074;SDS011;19433;51.292;6.868;2023-08-07T04:59:51;13.87;;;4.87;;
33074;SDS011;19433;51.292;6.868;2023-08-07T05:02:17;14.00;;;4.03;;
33074;SDS011;19433;51.292;6.868;2023-08-07T05:04:42;6.67;;;3.97;;
33074;SDS011;19433;51.292;6.868;2023-08-07T05:07:08;9.00;;;3.87;;
33074;SDS011;19433;51.292;6.868;2023-08-07T05:09:33;12.20;;;4.80;;
33074;SDS011;19433;51.292;6.868;2023-08-07T05:11:58;6.63;;;4.60;;
33074;SDS011;19433;51.292;6.868;2023-08-07T05:14:24;9.27;;;4.87;;
33074;SDS011;19433;51.292;6.868;2023-08-07T05:16:49;11.63;;;4.23;;
33074;SDS011;19433;51.292;6.868;2023-08-07T05:19:14;7.37;;;4.50;;
33074;SDS011;19433;51.292;6.868;2023-08-07T05:21:39;8.73;;;4.60;;
33074;SDS011;19433;51.292;6.868;2023-08-07T05:24:05;9.40;;;5.33;;
33074;SDS011;19433;51.292;6.868;2023-08-07T05:26:30;12.17;;;4.60;;
33074;SDS011;19433;51.292;6.868;2023-08-07T05:28:56;13.47;;;5.10;;
33074;SDS011;19433;51.292;6.868;2023-08-07T05:31:23;14.33;;;5.60;;
33074;SDS011;19433;51.292;6.868;2023-08-07T05:33:49;12.63;;;4.67;;
33074;SDS011;19433;51.292;6.868;2023-08-07T05:36:14;6.90;;;4.90;;
33074;SDS011;19433;51.292;6.868;2023-08-07T05:38:39;10.13;;;5.30;;
33074;SDS011;19433;51.292;6.868;2023-08-07T05:41:05;10.50;;;4.97;;
33074;SDS011;19433;51.292;6.868;2023-08-07T05:43:30;13.60;;;4.97;;
33074;SDS011;19433;51.292;6.868;2023-08-07T05:45:55;10.57;;;5.13;;
33074;SDS011;19433;51.292;6.868;2023-08-07T05:48:21;14.27;;;6.00;;
33074;SDS011;19433;51.292;6.868;2023-08-07T05:50:46;23.87;;;6.80;;
33074;SDS011;19433;51.292;6.868;2023-08-07T05:53:11;10.80;;;4.80;;
33074;SDS011;19433;51.292;6.868;2023-08-07T05:55:38;10.00;;;5.20;;
33074;SDS011;19433;51.292;6.868;2023-08-07T05:58:05;16.80;;;5.37;;
33074;SDS011;19433;51.292;6.868;2023-08-07T06:00:31;10.27;;;5.13;;
33074;SDS011;19433;51.292;6.868;2023-08-07T06:02:56;18.67;;;6.10;;
33074;SDS011;19433;51.292;6.868;2023-08-07T06:05:22;13.73;;;5.10;;
33074;SDS011;19433;51.292;6.868;2023-08-07T06:07:47;18.67;;;4.67;;
33074;SDS011;19433;51.292;6.868;2023-08-07T06:10:13;14.83;;;5.30;;
33074;SDS011;19433;51.292;6.868;2023-08-07T06:12:38;13.80;;;5.40;;
33074;SDS011;19433;51.292;6.868;2023-08-07T06:15:04;11.70;;;4.97;;
33074;SDS011;19433;51.292;6.868;2023-08-07T06:17:29;13.70;;;4.83;;
33074;SDS011;19433;51.292;6.868;2023-08-07T06:19:55;14.57;;;4.57;;
33074;SDS011;19433;51.292;6.868;2023-08-07T06:22:20;13.97;;;5.03;;
33074;SDS011;19433;51.292;6.868;2023-08-07T06:24:45;15.27;;;5.50;;
33074;SDS011;19433;51.292;6.868;2023-08-07T06:27:11;13.40;;;5.67;;
33074;SDS011;19433;51.292;6.868;2023-08-07T06:29:36;12.57;;;5.90;;
33074;SDS011;19433;51.292;6.868;2023-08-07T06:32:01;12.20;;;5.57;;
33074;SDS011;19433;51.292;6.868;2023-08-07T06:34:26;13.77;;;5.30;;
33074;SDS011;19433;51.292;6.868;2023-08-07T06:36:53;8.80;;;4.63;;
33074;SDS011;19433;51.292;6.868;2023-08-07T06:39:19;10.43;;;5.13;;
33074;SDS011;19433;51.292;6.868;2023-08-07T06:41:44;11.67;;;5.33;;
33074;SDS011;19433;51.292;6.868;2023-08-07T06:44:09;9.87;;;5.07;;
33074;SDS011;19433;51.292;6.868;2023-08-07T06:46:35;10.10;;;5.57;;
33074;SDS011;19433;51.292;6.868;2023-08-07T06:49:00;6.50;;;3.93;;
33074;SDS011;19433;51.292;6.868;2023-08-07T06:51:25;8.43;;;4.33;;
33074;SDS011;19433;51.292;6.868;2023-08-07T06:53:50;11.77;;;4.53;;
33074;SDS011;19433;51.292;6.868;2023-08-07T06:56:16;7.33;;;3.73;;
33074;SDS011;19433;51.292;6.868;2023-08-07T06:58:41;8.50;;;3.93;;
33074;SDS011;19433;51.292;6.868;2023-08-07T07:01:07;9.27;;;4.77;;
33074;SDS011;19433;51.292;6.868;2023-08-07T07:03:32;8.10;;;3.60;;
33074;SDS011;19433;51.292;6.868;2023-08-07T07:05:57;10.60;;;4.10;;
33074;SDS011;19433;51.292;6.868;2023-08-07T07:08:22;5.23;;;4.27;;
33074;SDS011;19433;51.292;6.868;2023-08-07T07:10:48;9.13;;;3.70;;
33074;SDS011;19433;51.292;6.868;2023-08-07T07:13:13;9.90;;;3.57;;
33074;SDS011;19433;51.292;6.868;2023-08-07T07:15:39;5.07;;;3.10;;
33074;SDS011;19433;51.292;6.868;2023-08-07T07:18:04;8.40;;;3.23;;
33074;SDS011;19433;51.292;6.868;2023-08-07T07:20:30;6.33;;;3.87;;
33074;SDS011;19433;51.292;6.868;2023-08-07T07:22:55;3.60;;;2.83;;
33074;SDS011;19433;51.292;6.868;2023-08-07T07:25:21;4.83;;;3.13;;
33074;SDS011;19433;51.292;6.868;2023-08-07T07:27:46;9.40;;;3.43;;
33074;SDS011;19433;51.292;6.868;2023-08-07T07:30:12;7.03;;;3.07;;
33074;SDS011;19433;51.292;6.868;2023-08-07T07:32:37;4.83;;;2.93;;
33074;SDS011;19433;51.292;6.868;2023-08-07T07:35:03;5.37;;;3.20;;
33074;SDS011;19433;51.292;6.868;2023-08-07T07:37:29;6.50;;;3.17;;
33074;SDS011;19433;51.292;6.868;2023-08-07T07:39:55;5.17;;;3.53;;
33074;SDS011;19433;51.292;6.868;2023-08-07T07:42:58;7.57;;;3.70;;
33074;SDS011;19433;51.292;6.868;2023-08-07T07:45:23;16.53;;;4.37;;
33074;SDS011;19433;51.292;6.868;2023-08-07T07:47:49;7.97;;;4.17;;
33074;SDS011;19433;51.292;6.868;2023-08-07T07:50:14;9.20;;;4.30;;
33074;SDS011;19433;51.292;6.868;2023-08-07T07:52:39;8.37;;;3.80;;
33074;SDS011;19433;51.292;6.868;2023-08-07T07:55:05;8.87;;;3.50;;
33074;SDS011;19433;51.292;6.868;2023-08-07T07:57:31;16.13;;;3.97;;
33074;SDS011;19433;51.292;6.868;2023-08-07T07:59:56;9.00;;;3.50;;
33074;SDS011;19433;51.292;6.868;2023-08-07T08:02:22;7.33;;;3.93;;
33074;SDS011;19433;51.292;6.868;2023-08-07T08:04:49;15.00;;;5.77;;
33074;SDS011;19433;51.292;6.868;2023-08-07T08:07:34;16.93;;;4.60;;
33074;SDS011;19433;51.292;6.868;2023-08-07T08:15:10;4.53;;;3.57;;
33074;SDS011;19433;51.292;6.868;2023-08-07T08:17:35;7.83;;;4.70;;
33074;SDS011;19433;51.292;6.868;2023-08-07T08:20:13;8.03;;;3.60;;
33074;SDS011;19433;51.292;6.868;2023-08-07T08:22:42;6.40;;;3.37;;
33074;SDS011;19433;51.292;6.868;2023-08-07T08:25:08;4.00;;;2.87;;
33074;SDS011;19433;51.292;6.868;2023-08-07T08:27:34;8.83;;;3.93;;
33074;SDS011;19433;51.292;6.868;2023-08-07T08:30:00;7.90;;;3.83;;
33074;SDS011;19433;51.292;6.868;2023-08-07T08:32:26;9.93;;;4.40;;
33074;SDS011;19433;51.292;6.868;2023-08-07T08:34:51;11.47;;;4.30;;
33074;SDS011;19433;51.292;6.868;2023-08-07T08:37:17;14.23;;;1.97;;
33074;SDS011;19433;51.292;6.868;2023-08-07T08:39:42;6.77;;;3.17;;
33074;SDS011;19433;51.292;6.868;2023-08-07T08:42:08;7.80;;;3.10;;
33074;SDS011;19433;51.292;6.868;2023-08-07T08:44:36;5.67;;;2.70;;
33074;SDS011;19433;51.292;6.868;2023-08-07T08:47:04;5.53;;;3.10;;
33074;SDS011;19433;51.292;6.868;2023-08-07T08:49:32;9.73;;;3.50;;
33074;SDS011;19433;51.292;6.868;2023-08-07T08:52:00;7.07;;;3.60;;
33074;SDS011;19433;51.292;6.868;2023-08-07T08:54:27;3.60;;;3.30;;
33074;SDS011;19433;51.292;6.868;2023-08-07T08:56:53;3.90;;;2.63;;
33074;SDS011;19433;51.292;6.868;2023-08-07T08:59:22;4.50;;;2.60;;
33074;SDS011;19433;51.292;6.868;2023-08-07T09:01:50;5.47;;;2.63;;
33074;SDS011;19433;51.292;6.868;2023-08-07T09:04:17;10.40;;;2.90;;
33074;SDS011;19433;51.292;6.868;2023-08-07T09:06:43;6.80;;;2.63;;
33074;SDS011;19433;51.292;6.868;2023-08-07T09:09:09;6.53;;;2.60;;
33074;SDS011;19433;51.292;6.868;2023-08-07T09:11:37;4.20;;;2.50;;
33074;SDS011;19433;51.292;6.868;2023-08-07T09:14:03;6.93;;;2.23;;
33074;SDS011;19433;51.292;6.868;2023-08-07T09:16:29;5.37;;;2.70;;
33074;SDS011;19433;51.292;6.868;2023-08-07T09:18:55;4.10;;;2.27;;
33074;SDS011;19433;51.292;6.868;2023-08-07T09:21:20;5.30;;;2.80;;
33074;SDS011;19433;51.292;6.868;2023-08-07T09:23:46;6.13;;;2.33;;
33074;SDS011;19433;51.292;6.868;2023-08-07T09:26:11;6.77;;;3.40;;
33074;SDS011;19433;51.292;6.868;2023-08-07T09:28:37;5.07;;;2.83;;
33074;SDS011;19433;51.292;6.868;2023-08-07T09:31:02;6.03;;;2.87;;
33074;SDS011;19433;51.292;6.868;2023-08-07T09:33:31;4.60;;;2.90;;
33074;SDS011;19433;51.292;6.868;2023-08-07T09:36:00;7.07;;;3.40;;
33074;SDS011;19433;51.292;6.868;2023-08-07T09:38:29;9.00;;;3.70;;
33074;SDS011;19433;51.292;6.868;2023-08-07T09:40:58;7.33;;;3.43;;
33074;SDS011;19433;51.292;6.868;2023-08-07T09:43:24;7.90;;;3.53;;
33074;SDS011;19433;51.292;6.868;2023-08-07T09:49:10;6.17;;;3.70;;
33074;SDS011;19433;51.292;6.868;2023-08-07T09:51:45;9.60;;;2.63;;
33074;SDS011;19433;51.292;6.868;2023-08-07T09:54:12;6.23;;;3.23;;
33074;SDS011;19433;51.292;6.868;2023-08-07T09:56:38;7.17;;;3.10;;
33074;SDS011;19433;51.292;6.868;2023-08-07T09:59:05;6.63;;;3.83;;
33074;SDS011;19433;51.292;6.868;2023-08-07T10:01:31;5.60;;;3.00;;
33074;SDS011;19433;51.292;6.868;2023-08-07T10:03:57;7.40;;;3.20;;
33074;SDS011;19433;51.292;6.868;2023-08-07T10:06:22;5.50;;;3.30;;
33074;SDS011;19433;51.292;6.868;2023-08-07T10:08:48;4.73;;;2.80;;
33074;SDS011;19433;51.292;6.868;2023-08-07T10:11:14;4.83;;;2.90;;
33074;SDS011;19433;51.292;6.868;2023-08-07T10:13:40;7.00;;;3.17;;
33074;SDS011;19433;51.292;6.868;2023-08-07T10:16:06;7.10;;;2.70;;
33074;SDS011;19433;51.292;6.868;2023-08-07T10:18:32;6.40;;;3.10;;
33074;SDS011;19433;51.292;6.868;2023-08-07T10:21:02;5.43;;;2.57;;
33074;SDS011;19433;51.292;6.868;2023-08-07T10:23:30;5.33;;;2.37;;
33074;SDS011;19433;51.292;6.868;2023-08-07T10:25:59;14.13;;;2.90;;
33074;SDS011;19433;51.292;6.868;2023-08-07T10:28:26;4.90;;;2.30;;
33074;SDS011;19433;51.292;6.868;2023-08-07T10:30:52;5.60;;;2.13;;
33074;SDS011;19433;51.292;6.868;2023-08-07T10:33:18;5.83;;;2.87;;
33074;SDS011;19433;51.292;6.868;2023-08-07T10:35:46;3.33;;;2.10;;
33074;SDS011;19433;51.292;6.868;2023-08-07T10:38:16;4.40;;;2.20;;
33074;SDS011;19433;51.292;6.868;2023-08-07T10:41:00;4.33;;;2.30;;
33074;SDS011;19433;51.292;6.868;2023-08-07T10:43:26;5.30;;;2.60;;
33074;SDS011;19433;51.292;6.868;2023-08-07T10:45:53;5.37;;;2.43;;
33074;SDS011;19433;51.292;6.868;2023-08-07T10:48:20;4.10;;;2.30;;
33074;SDS011;19433;51.292;6.868;2023-08-07T10:50:50;5.43;;;2.03;;
33074;SDS011;19433;51.292;6.868;2023-08-07T10:55:53;4.67;;;2.20;;
33074;SDS011;19433;51.292;6.868;2023-08-07T10:58:25;6.10;;;2.20;;
33074;SDS011;19433;51.292;6.868;2023-08-07T11:03:56;4.83;;;2.13;;
33074;SDS011;19433;51.292;6.868;2023-08-07T11:06:23;5.43;;;2.40;;
33074;SDS011;19433;51.292;6.868;2023-08-07T11:08:51;5.63;;;2.30;;
33074;SDS011;19433;51.292;6.868;2023-08-07T11:11:17;6.60;;;3.30;;
33074;SDS011;19433;51.292;6.868;2023-08-07T11:13:42;6.80;;;2.67;;
33074;SDS011;19433;51.292;6.868;2023-08-07T11:16:07;6.53;;;2.20;;
33074;SDS011;19433;51.292;6.868;2023-08-07T11:18:33;4.20;;;2.37;;
33074;SDS011;19433;51.292;6.868;2023-08-07T11:21:01;3.27;;;1.60;;
33074;SDS011;19433;51.292;6.868;2023-08-07T11:23:27;3.10;;;2.00;;
33074;SDS011;19433;51.292;6.868;2023-08-07T11:25:55;2.80;;;2.13;;
33074;SDS011;19433;51.292;6.868;2023-08-07T11:28:22;3.93;;;2.57;;
33074;SDS011;19433;51.292;6.868;2023-08-07T11:30:49;7.50;;;2.10;;
33074;SDS011;19433;51.292;6.868;2023-08-07T11:33:17;5.00;;;2.53;;
33074;SDS011;19433;51.292;6.868;2023-08-07T11:35:43;3.27;;;2.40;;
33074;SDS011;19433;51.292;6.868;2023-08-07T11:38:08;5.50;;;1.90;;
33074;SDS011;19433;51.292;6.868;2023-08-07T11:40:34;3.20;;;1.73;;
33074;SDS011;19433;51.292;6.868;2023-08-07T11:42:59;4.63;;;1.63;;
33074;SDS011;19433;51.292;6.868;2023-08-07T11:45:25;4.40;;;1.60;;
33074;SDS011;19433;51.292;6.868;2023-08-07T11:47:50;5.30;;;1.87;;
33074;SDS011;19433;51.292;6.868;2023-08-07T11:50:16;4.97;;;2.10;;
33074;SDS011;19433;51.292;6.868;2023-08-07T11:52:41;6.03;;;2.33;;
33074;SDS011;19433;51.292;6.868;2023-08-07T11:55:07;3.40;;;2.17;;
33074;SDS011;19433;51.292;6.868;2023-08-07T11:57:34;4.63;;;2.10;;
33074;SDS011;19433;51.292;6.868;2023-08-07T11:59:59;4.07;;;1.90;;
33074;SDS011;19433;51.292;6.868;2023-08-07T12:02:25;3.23;;;1.90;;
33074;SDS011;19433;51.292;6.868;2023-08-07T12:04:50;2.37;;;1.80;;
33074;SDS011;19433;51.292;6.868;2023-08-07T12:07:18;2.90;;;1.97;;
33074;SDS011;19433;51.292;6.868;2023-08-07T12:09:48;3.70;;;2.00;;
33074;SDS011;19433;51.292;6.868;2023-08-07T12:12:13;3.57;;;1.73;;
33074;SDS011;19433;51.292;6.868;2023-08-07T12:14:38;5.53;;;1.90;;
33074;SDS011;19433;51.292;6.868;2023-08-07T12:17:04;5.27;;;2.37;;
33074;SDS011;19433;51.292;6.868;2023-08-07T12:19:39;3.60;;;1.90;;
33074;SDS011;19433;51.292;6.868;2023-08-07T12:22:09;3.90;;;1.97;;
33074;SDS011;19433;51.292;6.868;2023-08-07T12:24:36;5.23;;;1.83;;
33074;SDS011;19433;51.292;6.868;2023-08-07T12:27:02;5.67;;;1.97;;
33074;SDS011;19433;51.292;6.868;2023-08-07T12:29:28;3.13;;;1.63;;
33074;SDS011;19433;51.292;6.868;2023-08-07T12:31:54;4.70;;;1.90;;
33074;SDS011;19433;51.292;6.868;2023-08-07T12:34:20;1.70;;;1.60;;
33074;SDS011;19433;51.292;6.868;2023-08-07T12:36:45;3.17;;;1.60;;
33074;SDS011;19433;51.292;6.868;2023-08-07T12:39:11;3.13;;;1.93;;
33074;SDS011;19433;51.292;6.868;2023-08-07T12:41:37;4.53;;;1.73;;
33074;SDS011;19433;51.292;6.868;2023-08-07T12:44:02;5.73;;;2.23;;
33074;SDS011;19433;51.292;6.868;2023-08-07T12:46:28;3.17;;;1.70;;
33074;SDS011;19433;51.292;6.868;2023-08-07T12:48:53;2.83;;;1.60;;
33074;SDS011;19433;51.292;6.868;2023-08-07T12:51:18;3.40;;;2.00;;
33074;SDS011;19433;51.292;6.868;2023-08-07T12:53:43;3.43;;;1.70;;
33074;SDS011;19433;51.292;6.868;2023-08-07T12:56:10;3.23;;;1.57;;
33074;SDS011;19433;51.292;6.868;2023-08-07T12:58:35;2.60;;;1.60;;
33074;SDS011;19433;51.292;6.868;2023-08-07T13:01:00;3.97;;;1.63;;
33074;SDS011;19433;51.292;6.868;2023-08-07T13:03:26;2.93;;;1.33;;
33074;SDS011;19433;51.292;6.868;2023-08-07T13:05:51;2.50;;;1.77;;
33074;SDS011;19433;51.292;6.868;2023-08-07T13:08:16;3.33;;;1.60;;
33074;SDS011;19433;51.292;6.868;2023-08-07T13:10:42;2.70;;;1.50;;
33074;SDS011;19433;51.292;6.868;2023-08-07T13:13:07;3.87;;;1.60;;
33074;SDS011;19433;51.292;6.868;2023-08-07T13:15:32;5.70;;;1.67;;
33074;SDS011;19433;51.292;6.868;2023-08-07T13:17:58;3.60;;;1.70;;
33074;SDS011;19433;51.292;6.868;2023-08-07T13:20:23;2.77;;;1.47;;
33074;SDS011;19433;51.292;6.868;2023-08-07T13:22:48;3.03;;;1.70;;
33074;SDS011;19433;51.292;6.868;2023-08-07T13:25:14;1.87;;;1.47;;
33074;SDS011;19433;51.292;6.868;2023-08-07T13:27:40;2.67;;;1.20;;
33074;SDS011;19433;51.292;6.868;2023-08-07T13:30:06;2.80;;;1.90;;
33074;SDS011;19433;51.292;6.868;2023-08-07T13:32:32;4.80;;;1.57;;
33074;SDS011;19433;51.292;6.868;2023-08-07T13:34:57;4.07;;;1.80;;
33074;SDS011;19433;51.292;6.868;2023-08-07T13:37:22;3.13;;;1.57;;
33074;SDS011;19433;51.292;6.868;2023-08-07T13:39:48;2.23;;;1.80;;
33074;SDS011;19433;51.292;6.868;2023-08-07T13:42:15;2.17;;;1.97;;
33074;SDS011;19433;51.292;6.868;2023-08-07T13:44:41;2.80;;;1.63;;
33074;SDS011;19433;51.292;6.868;2023-08-07T13:47:06;1.80;;;1.27;;
33074;SDS011;19433;51.292;6.868;2023-08-07T13:49:32;2.27;;;1.43;;
33074;SDS011;19433;51.292;6.868;2023-08-07T13:51:57;4.00;;;1.63;;
33074;SDS011;19433;51.292;6.868;2023-08-07T13:54:23;2.97;;;1.60;;
33074;SDS011;19433;51.292;6.868;2023-08-07T13:56:48;4.60;;;1.50;;
33074;SDS011;19433;51.292;6.868;2023-08-07T13:59:13;2.60;;;1.93;;
33074;SDS011;19433;51.292;6.868;2023-08-07T14:01:39;1.93;;;1.60;;
33074;SDS011;19433;51.292;6.868;2023-08-07T14:04:04;2.70;;;1.70;;
33074;SDS011;19433;51.292;6.868;2023-08-07T14:06:30;6.63;;;2.17;;
33074;SDS011;19433;51.292;6.868;2023-08-07T14:08:55;1.97;;;1.50;;
33074;SDS011;19433;51.292;6.868;2023-08-07T14:11:21;2.20;;;1.63;;
33074;SDS011;19433;51.292;6.868;2023-08-07T14:13:49;2.00;;;1.43;;
33074;SDS011;19433;51.292;6.868;2023-08-07T14:16:14;3.00;;;2.03;;
33074;SDS011;19433;51.292;6.868;2023-08-07T14:18:39;2.90;;;2.03;;
33074;SDS011;19433;51.292;6.868;2023-08-07T14:21:05;1.63;;;1.33;;
33074;SDS011;19433;51.292;6.868;2023-08-07T14:23:30;2.30;;;1.80;;
33074;SDS011;19433;51.292;6.868;2023-08-07T14:25:56;2.90;;;1.50;;
33074;SDS011;19433;51.292;6.868;2023-08-07T14:28:21;3.43;;;1.57;;
33074;SDS011;19433;51.292;6.868;2023-08-07T14:30:47;3.10;;;1.67;;
33074;SDS011;19433;51.292;6.868;2023-08-07T14:33:12;3.33;;;1.60;;
33074;SDS011;19433;51.292;6.868;2023-08-07T14:35:38;2.53;;;1.63;;
33074;SDS011;19433;51.292;6.868;2023-08-07T14:38:03;3.13;;;1.77;;
33074;SDS011;19433;51.292;6.868;2023-08-07T14:40:28;1.83;;;1.30;;
33074;SDS011;19433;51.292;6.868;2023-08-07T14:42:54;1.83;;;1.60;;
33074;SDS011;19433;51.292;6.868;2023-08-07T14:45:20;2.33;;;1.90;;
33074;SDS011;19433;51.292;6.868;2023-08-07T14:47:45;3.53;;;1.80;;
33074;SDS011;19433;51.292;6.868;2023-08-07T14:50:11;2.10;;;1.83;;
33074;SDS011;19433;51.292;6.868;2023-08-07T14:52:36;3.00;;;1.63;;
33074;SDS011;19433;51.292;6.868;2023-08-07T14:55:02;2.00;;;1.53;;
33074;SDS011;19433;51.292;6.868;2023-08-07T14:57:28;3.80;;;1.70;;
33074;SDS011;19433;51.292;6.868;2023-08-07T14:59:53;4.53;;;1.63;;
33074;SDS011;19433;51.292;6.868;2023-08-07T15:02:19;3.70;;;2.00;;
33074;SDS011;19433;51.292;6.868;2023-08-07T15:04:44;3.90;;;1.50;;
33074;SDS011;19433;51.292;6.868;2023-08-07T15:07:09;2.37;;;1.53;;
33074;SDS011;19433;51.292;6.868;2023-08-07T15:09:35;5.03;;;2.30;;
33074;SDS011;19433;51.292;6.868;2023-08-07T15:12:00;1.67;;;1.57;;
33074;SDS011;19433;51.292;6.868;2023-08-07T15:14:25;4.90;;;2.20;;
33074;SDS011;19433;51.292;6.868;2023-08-07T15:16:51;2.80;;;1.90;;
33074;SDS011;19433;51.292;6.868;2023-08-07T15:19:16;2.27;;;2.17;;
33074;SDS011;19433;51.292;6.868;2023-08-07T15:21:41;2.77;;;1.90;;
33074;SDS011;19433;51.292;6.868;2023-08-07T15:24:07;3.10;;;2.43;;
33074;SDS011;19433;51.292;6.868;2023-08-07T15:26:32;4.23;;;2.10;;
33074;SDS011;19433;51.292;6.868;2023-08-07T15:28:57;2.10;;;2.00;;
33074;SDS011;19433;51.292;6.868;2023-08-07T15:31:23;2.00;;;1.80;;
33074;SDS011;19433;51.292;6.868;2023-08-07T15:33:48;2.80;;;2.60;;
33074;SDS011;19433;51.292;6.868;2023-08-07T15:36:16;2.63;;;1.83;;
33074;SDS011;19433;51.292;6.868;2023-08-07T15:38:41;3.23;;;2.13;;
33074;SDS011;19433;51.292;6.868;2023-08-07T15:41:06;3.60;;;2.57;;
33074;SDS011;19433;51.292;6.868;2023-08-07T15:43:32;3.70;;;2.17;;